sensor_id;sensor_type;location;lat;lon;timestamp;pressure;altitude;pressure_sealevel;temperature;humidity
75188;BME280;63762;51.334;22.108;2024-03-29T00:04:02;99929.48;;;10.89;62.16
75188;BME280;63762;51.334;22.108;2024-03-29T00:14:10;99935.58;;;10.91;62.17
75188;BME280;63762;51.334;22.108;2024-03-29T00:24:17;100006.80;;;10.77;62.92
75188;BME280;63762;51.334;22.108;2024-03-29T00:34:24;100030.88;;;10.69;64.74
75188;BME280;63762;51.334;22.108;2024-03-29T00:44:31;100049.82;;;10.58;65.33
75188;BME280;63762;51.334;22.108;2024-03-29T00:54:38;100080.34;;;10.38;67.12
75188;BME280;63762;51.334;22.108;2024-03-29T01:04:45;100111.06;;;9.65;75.32
75188;BME280;63762;51.334;22.108;2024-03-29T01:14:52;100121.05;;;9.42;76.79
75188;BME280;63762;51.334;22.108;2024-03-29T01:24:59;100147.16;;;9.20;79.23
75188;BME280;63762;51.334;22.108;2024-03-29T01:35:07;100168.38;;;9.23;79.99
75188;BME280;63762;51.334;22.108;2024-03-29T01:45:14;100195.76;;;9.05;81.80
75188;BME280;63762;51.334;22.108;2024-03-29T01:55:21;100227.46;;;9.00;81.97
75188;BME280;63762;51.334;22.108;2024-03-29T02:05:28;100247.48;;;8.74;82.16
75188;BME280;63762;51.334;22.108;2024-03-29T02:15:35;100291.48;;;8.50;82.38
75188;BME280;63762;51.334;22.108;2024-03-29T02:25:42;100328.48;;;8.34;82.69
75188;BME280;63762;51.334;22.108;2024-03-29T02:35:49;100361.49;;;8.34;82.87
75188;BME280;63762;51.334;22.108;2024-03-29T02:45:57;100383.16;;;8.31;82.87
75188;BME280;63762;51.334;22.108;2024-03-29T02:56:04;100416.84;;;8.23;83.80
75188;BME280;63762;51.334;22.108;2024-03-29T03:06:11;100441.75;;;8.12;83.42
75188;BME280;63762;51.334;22.108;2024-03-29T03:16:18;100459.05;;;7.96;84.04
75188;BME280;63762;51.334;22.108;2024-03-29T03:26:25;100458.95;;;7.97;81.96
75188;BME280;63762;51.334;22.108;2024-03-29T03:36:32;100462.77;;;8.06;81.31
75188;BME280;63762;51.334;22.108;2024-03-29T03:46:40;100488.35;;;8.10;80.81
75188;BME280;63762;51.334;22.108;2024-03-29T03:56:46;100517.05;;;8.20;80.97
75188;BME280;63762;51.334;22.108;2024-03-29T04:06:54;100549.95;;;8.35;79.96
75188;BME280;63762;51.334;22.108;2024-03-29T04:17:01;100574.45;;;8.05;81.32
75188;BME280;63762;51.334;22.108;2024-03-29T04:27:08;100586.88;;;7.94;81.30
75188;BME280;63762;51.334;22.108;2024-03-29T04:37:15;100606.18;;;7.86;81.09
75188;BME280;63762;51.334;22.108;2024-03-29T04:47:23;100629.30;;;8.00;80.97
75188;BME280;63762;51.334;22.108;2024-03-29T04:57:29;100628.55;;;8.10;80.53
75188;BME280;63762;51.334;22.108;2024-03-29T05:07:36;100659.08;;;8.20;80.36
75188;BME280;63762;51.334;22.108;2024-03-29T05:17:44;100667.27;;;8.31;79.53
75188;BME280;63762;51.334;22.108;2024-03-29T05:27:51;100671.33;;;7.99;80.28
75188;BME280;63762;51.334;22.108;2024-03-29T05:37:58;100678.81;;;7.82;80.72
75188;BME280;63762;51.334;22.108;2024-03-29T05:48:06;100678.04;;;7.92;81.27
75188;BME280;63762;51.334;22.108;2024-03-29T05:58:12;100693.19;;;8.18;80.89
75188;BME280;63762;51.334;22.108;2024-03-29T06:08:19;100724.84;;;8.38;79.17
75188;BME280;63762;51.334;22.108;2024-03-29T06:18:26;100719.20;;;8.66;76.92
75188;BME280;63762;51.334;22.108;2024-03-29T06:28:33;100737.80;;;8.93;74.21
75188;BME280;63762;51.334;22.108;2024-03-29T06:38:41;100756.25;;;9.34;71.82
75188;BME280;63762;51.334;22.108;2024-03-29T06:51:56;100791.78;;;9.84;70.80
75188;BME280;63762;51.334;22.108;2024-03-29T07:02:03;100817.27;;;10.26;69.49
75188;BME280;63762;51.334;22.108;2024-03-29T07:12:10;100828.80;;;10.39;65.80
75188;BME280;63762;51.334;22.108;2024-03-29T07:22:17;100822.99;;;10.78;63.99
75188;BME280;63762;51.334;22.108;2024-03-29T07:32:24;100831.82;;;11.13;62.92
75188;BME280;63762;51.334;22.108;2024-03-29T07:42:31;100844.91;;;11.40;63.59
75188;BME280;63762;51.334;22.108;2024-03-29T07:52:39;100843.77;;;12.07;62.23
75188;BME280;63762;51.334;22.108;2024-03-29T08:02:46;100845.61;;;12.58;58.21
75188;BME280;63762;51.334;22.108;2024-03-29T08:12:53;100850.22;;;12.67;60.32
75188;BME280;63762;51.334;22.108;2024-03-29T08:23:00;100840.98;;;12.90;59.30
75188;BME280;63762;51.334;22.108;2024-03-29T08:33:07;100838.56;;;13.17;56.24
75188;BME280;63762;51.334;22.108;2024-03-29T08:43:14;100845.38;;;13.52;55.35
75188;BME280;63762;51.334;22.108;2024-03-29T08:53:22;100849.71;;;13.83;58.73
75188;BME280;63762;51.334;22.108;2024-03-29T09:03:28;100863.44;;;14.67;53.86
75188;BME280;63762;51.334;22.108;2024-03-29T09:13:36;100869.02;;;14.56;52.80
75188;BME280;63762;51.334;22.108;2024-03-29T09:23:45;100883.83;;;15.26;52.46
75188;BME280;63762;51.334;22.108;2024-03-29T09:33:50;100877.14;;;15.67;48.44
75188;BME280;63762;51.334;22.108;2024-03-29T09:43:59;100864.23;;;14.96;47.06
75188;BME280;63762;51.334;22.108;2024-03-29T09:54:05;100870.52;;;14.96;51.45
75188;BME280;63762;51.334;22.108;2024-03-29T10:04:13;100882.24;;;15.70;49.64
75188;BME280;63762;51.334;22.108;2024-03-29T10:14:18;100878.53;;;16.16;46.28
75188;BME280;63762;51.334;22.108;2024-03-29T10:24:25;100895.09;;;16.57;44.28
75188;BME280;63762;51.334;22.108;2024-03-29T10:34:33;100910.45;;;16.66;42.76
75188;BME280;63762;51.334;22.108;2024-03-29T10:44:40;100905.09;;;16.39;43.18
75188;BME280;63762;51.334;22.108;2024-03-29T10:54:47;100896.52;;;16.61;45.10
75188;BME280;63762;51.334;22.108;2024-03-29T11:04:58;100904.40;;;17.41;43.85
75188;BME280;63762;51.334;22.108;2024-03-29T11:15:12;100899.81;;;17.16;45.99
75188;BME280;63762;51.334;22.108;2024-03-29T11:25:17;100897.22;;;17.57;43.58
75188;BME280;63762;51.334;22.108;2024-03-29T11:35:18;100904.34;;;17.92;41.96
75188;BME280;63762;51.334;22.108;2024-03-29T11:45:29;100877.03;;;18.26;42.18
75188;BME280;63762;51.334;22.108;2024-03-29T11:55:35;100888.34;;;18.55;38.54
75188;BME280;63762;51.334;22.108;2024-03-29T12:05:37;100890.62;;;18.18;38.97
75188;BME280;63762;51.334;22.108;2024-03-29T12:15:44;100879.48;;;18.53;37.92
75188;BME280;63762;51.334;22.108;2024-03-29T12:25:55;100872.00;;;18.71;36.70
75188;BME280;63762;51.334;22.108;2024-03-29T12:35:58;100875.02;;;19.08;37.91
75188;BME280;63762;51.334;22.108;2024-03-29T12:46:05;100863.07;;;19.79;35.03
75188;BME280;63762;51.334;22.108;2024-03-29T12:56:13;100873.62;;;20.21;34.37
75188;BME280;63762;51.334;22.108;2024-03-29T13:06:19;100868.51;;;21.08;32.95
75188;BME280;63762;51.334;22.108;2024-03-29T13:16:27;100888.84;;;21.57;30.70
75188;BME280;63762;51.334;22.108;2024-03-29T13:26:34;100879.20;;;22.05;30.59
75188;BME280;63762;51.334;22.108;2024-03-29T13:36:41;100867.95;;;23.20;27.39
75188;BME280;63762;51.334;22.108;2024-03-29T13:46:48;100874.63;;;23.11;25.96
75188;BME280;63762;51.334;22.108;2024-03-29T13:56:55;100863.66;;;23.38;26.86
75188;BME280;63762;51.334;22.108;2024-03-29T14:07:02;100858.34;;;23.09;27.55
75188;BME280;63762;51.334;22.108;2024-03-29T14:17:09;100876.66;;;22.04;27.69
75188;BME280;63762;51.334;22.108;2024-03-29T14:27:16;100894.34;;;20.83;28.95
75188;BME280;63762;51.334;22.108;2024-03-29T14:37:23;100902.34;;;20.17;29.99
75188;BME280;63762;51.334;22.108;2024-03-29T14:47:31;100877.95;;;19.77;32.08
75188;BME280;63762;51.334;22.108;2024-03-29T14:57:38;100884.47;;;19.60;32.76
75188;BME280;63762;51.334;22.108;2024-03-29T15:07:45;100869.19;;;19.81;32.37
75188;BME280;63762;51.334;22.108;2024-03-29T15:17:52;100861.15;;;19.88;32.42
75188;BME280;63762;51.334;22.108;2024-03-29T15:27:59;100860.71;;;20.38;30.86
75188;BME280;63762;51.334;22.108;2024-03-29T15:38:12;100880.48;;;19.32;31.20
75188;BME280;63762;51.334;22.108;2024-03-29T15:48:25;100880.84;;;18.89;31.85
75188;BME280;63762;51.334;22.108;2024-03-29T15:58:26;100876.74;;;18.77;32.95
75188;BME280;63762;51.334;22.108;2024-03-29T16:08:29;100887.67;;;18.61;33.21
75188;BME280;63762;51.334;22.108;2024-03-29T16:18:35;100881.53;;;18.75;33.59
75188;BME280;63762;51.334;22.108;2024-03-29T16:28:42;100879.13;;;18.80;33.69
75188;BME280;63762;51.334;22.108;2024-03-29T16:38:49;100871.65;;;18.42;34.05
75188;BME280;63762;51.334;22.108;2024-03-29T16:48:56;100880.23;;;18.13;34.93
75188;BME280;63762;51.334;22.108;2024-03-29T16:59:04;100877.61;;;17.88;36.30
75188;BME280;63762;51.334;22.108;2024-03-29T17:09:10;100868.34;;;17.64;37.22
75188;BME280;63762;51.334;22.108;2024-03-29T17:19:17;100881.04;;;17.30;38.26
75188;BME280;63762;51.334;22.108;2024-03-29T17:29:25;100862.82;;;16.97;39.15
75188;BME280;63762;51.334;22.108;2024-03-29T17:39:32;100874.82;;;16.69;39.81
75188;BME280;63762;51.334;22.108;2024-03-29T17:49:39;100881.04;;;16.44;40.36
75188;BME280;63762;51.334;22.108;2024-03-29T17:59:46;100893.66;;;16.18;41.24
75188;BME280;63762;51.334;22.108;2024-03-29T18:09:53;100910.40;;;15.96;41.85
75188;BME280;63762;51.334;22.108;2024-03-29T18:20:00;100899.95;;;15.74;42.18
75188;BME280;63762;51.334;22.108;2024-03-29T18:30:08;100908.32;;;15.53;42.49
75188;BME280;63762;51.334;22.108;2024-03-29T18:40:14;100926.47;;;15.34;42.94
75188;BME280;63762;51.334;22.108;2024-03-29T18:50:22;100913.39;;;15.20;43.45
75188;BME280;63762;51.334;22.108;2024-03-29T19:00:29;100902.74;;;14.99;43.81
75188;BME280;63762;51.334;22.108;2024-03-29T19:10:36;100900.07;;;14.80;43.93
75188;BME280;63762;51.334;22.108;2024-03-29T19:20:43;100886.84;;;14.49;44.63
75188;BME280;63762;51.334;22.108;2024-03-29T19:30:50;100885.00;;;14.30;45.34
75188;BME280;63762;51.334;22.108;2024-03-29T19:40:57;100886.23;;;14.17;45.89
75188;BME280;63762;51.334;22.108;2024-03-29T19:51:04;100889.05;;;13.96;46.53
75188;BME280;63762;51.334;22.108;2024-03-29T20:01:12;100889.17;;;13.85;47.45
75188;BME280;63762;51.334;22.108;2024-03-29T20:11:18;100892.98;;;13.73;48.11
75188;BME280;63762;51.334;22.108;2024-03-29T20:21:26;100896.34;;;13.56;49.04
75188;BME280;63762;51.334;22.108;2024-03-29T20:31:33;100899.38;;;13.32;50.59
75188;BME280;63762;51.334;22.108;2024-03-29T20:41:40;100887.96;;;12.99;52.05
75188;BME280;63762;51.334;22.108;2024-03-29T20:51:47;100893.20;;;12.80;53.36
75188;BME280;63762;51.334;22.108;2024-03-29T21:01:55;100904.91;;;12.69;54.27
75188;BME280;63762;51.334;22.108;2024-03-29T21:12:08;100901.77;;;12.64;54.91
75188;BME280;63762;51.334;22.108;2024-03-29T21:22:09;100899.45;;;12.60;55.39
75188;BME280;63762;51.334;22.108;2024-03-29T21:32:16;100906.95;;;12.56;55.71
75188;BME280;63762;51.334;22.108;2024-03-29T21:42:23;100895.19;;;12.57;55.92
75188;BME280;63762;51.334;22.108;2024-03-29T21:52:30;100908.46;;;12.49;56.56
75188;BME280;63762;51.334;22.108;2024-03-29T22:02:37;100913.92;;;12.38;57.12
75188;BME280;63762;51.334;22.108;2024-03-29T22:12:44;100915.57;;;12.19;58.64
75188;BME280;63762;51.334;22.108;2024-03-29T22:22:52;100908.72;;;12.15;58.99
75188;BME280;63762;51.334;22.108;2024-03-29T22:32:58;100905.54;;;12.10;59.55
75188;BME280;63762;51.334;22.108;2024-03-29T22:43:05;100911.92;;;12.09;59.82
75188;BME280;63762;51.334;22.108;2024-03-29T22:53:13;100926.52;;;12.06;59.96
75188;BME280;63762;51.334;22.108;2024-03-29T23:03:20;100927.48;;;12.05;60.37
75188;BME280;63762;51.334;22.108;2024-03-29T23:13:27;100922.75;;;11.98;61.12
75188;BME280;63762;51.334;22.108;2024-03-29T23:23:34;100915.74;;;12.06;61.25
75188;BME280;63762;51.334;22.108;2024-03-29T23:33:41;100896.37;;;12.01;61.88
75188;BME280;63762;51.334;22.108;2024-03-29T23:43:48;100892.48;;;11.94;62.31
75188;BME280;63762;51.334;22.108;2024-03-29T23:53:55;100884.89;;;11.88;62.79
